地図

経路データ

SID SEASON NUMBER BASIN SUBBASIN NAME ISO_TIME NATURE LAT LON WMO_WIND WMO_PRES WMO_AGENCY TRACK_TYPE DIST2LAND LANDFALL IFLAG USA_AGENCY USA_ATCF_ID USA_LAT USA_LON USA_RECORD USA_STATUS USA_WIND USA_PRES USA_SSHS USA_R34_NE USA_R34_SE USA_R34_SW USA_R34_NW USA_R50_NE USA_R50_SE USA_R50_SW USA_R50_NW USA_R64_NE USA_R64_SE USA_R64_SW USA_R64_NW USA_POCI USA_ROCI USA_RMW USA_EYE TOKYO_LAT TOKYO_LON TOKYO_GRADE TOKYO_WIND TOKYO_PRES TOKYO_R50_DIR TOKYO_R50_LONG TOKYO_R50_SHORT TOKYO_R30_DIR TOKYO_R30_LONG TOKYO_R30_SHORT TOKYO_LAND CMA_LAT CMA_LON CMA_CAT CMA_WIND CMA_PRES HKO_LAT HKO_LON HKO_CAT HKO_WIND HKO_PRES NEWDELHI_LAT NEWDELHI_LON NEWDELHI_GRADE NEWDELHI_WIND NEWDELHI_PRES NEWDELHI_CI NEWDELHI_DP NEWDELHI_POCI REUNION_LAT REUNION_LON REUNION_TYPE REUNION_WIND REUNION_PRES REUNION_TNUM REUNION_CI REUNION_RMW REUNION_R34_NE REUNION_R34_SE REUNION_R34_SW REUNION_R34_NW REUNION_R50_NE REUNION_R50_SE REUNION_R50_SW REUNION_R50_NW REUNION_R64_NE REUNION_R64_SE REUNION_R64_SW REUNION_R64_NW BOM_LAT BOM_LON BOM_TYPE BOM_WIND BOM_PRES BOM_TNUM BOM_CI BOM_RMW BOM_R34_NE BOM_R34_SE BOM_R34_SW BOM_R34_NW BOM_R50_NE BOM_R50_SE BOM_R50_SW BOM_R50_NW BOM_R64_NE BOM_R64_SE BOM_R64_SW BOM_R64_NW BOM_ROCI BOM_POCI BOM_EYE BOM_POS_METHOD BOM_PRES_METHOD NADI_LAT NADI_LON NADI_CAT NADI_WIND NADI_PRES WELLINGTON_LAT WELLINGTON_LON WELLINGTON_WIND WELLINGTON_PRES DS824_LAT DS824_LON DS824_STAGE DS824_WIND DS824_PRES TD9636_LAT TD9636_LON TD9636_STAGE TD9636_WIND TD9636_PRES TD9635_LAT TD9635_LON TD9635_WIND TD9635_PRES TD9635_ROCI NEUMANN_LAT NEUMANN_LON NEUMANN_CLASS NEUMANN_WIND NEUMANN_PRES MLC_LAT MLC_LON MLC_CLASS MLC_WIND MLC_PRES USA_GUST BOM_GUST BOM_GUST_PER REUNION_GUST REUNION_GUST_PER USA_SEAHGT USA_SEARAD_NE USA_SEARAD_SE USA_SEARAD_SW USA_SEARAD_NW STORM_SPEED STORM_DIR
1979191N22264 1979 52 NA GM BOB 1979-07-09 12:00:00 TS 22.0000 -96.0000 20 1012 hurdat_atl main 141 141 O_____________ hurdat_atl AL041979 22.0000 -96.0000 TD 20 1012 -1 8 53
1979191N22264 1979 52 NA GM BOB 1979-07-09 15:00:00 TS 22.2502 -95.6478 main 191 191 P_____________ AL041979 22.2502 -95.6478 TD 22 1011 -1 8 52
1979191N22264 1979 52 NA GM BOB 1979-07-09 18:00:00 TS 22.5000 -95.3000 25 1010 hurdat_atl main 229 229 O_____________ hurdat_atl AL041979 22.5000 -95.3000 TD 25 1010 -1 8 52
1979191N22264 1979 52 NA GM BOB 1979-07-09 21:00:00 TS 22.7499 -94.9573 main 266 266 P_____________ AL041979 22.7499 -94.9573 TD 27 1008 -1 8 52
1979191N22264 1979 52 NA GM BOB 1979-07-10 00:00:00 TS 23.0000 -94.6000 30 1007 hurdat_atl main 318 318 O_____________ hurdat_atl AL041979 23.0000 -94.6000 TD 30 1007 -1 9 54
1979191N22264 1979 52 NA GM BOB 1979-07-10 03:00:00 TS 23.2500 -94.2074 main 365 365 P_____________ AL041979 23.2500 -94.2074 TD 32 1005 -1 9 56
1979191N22264 1979 52 NA GM BOB 1979-07-10 06:00:00 TS 23.5000 -93.8000 35 1004 hurdat_atl main 407 407 O_____________ hurdat_atl AL041979 23.5000 -93.8000 TS 35 1004 0 9 58
1979191N22264 1979 52 NA GM BOB 1979-07-10 09:00:00 TS 23.7125 -93.3921 main 431 423 P_____________ AL041979 23.7125 -93.3921 TS 42 1001 0 9 56
1979191N22264 1979 52 NA GM BOB 1979-07-10 12:00:00 TS 24.0000 -93.0000 50 998 hurdat_atl main 426 426 O_____________ hurdat_atl AL041979 24.0000 -93.0000 TS 50 998 0 10 43
1979191N22264 1979 52 NA GM BOB 1979-07-10 15:00:00 TS 24.4474 -92.6423 main 437 437 P_____________ AL041979 24.4474 -92.6423 TS 52 997 0 12 32
1979191N22264 1979 52 NA GM BOB 1979-07-10 18:00:00 TS 25.0000 -92.3000 55 996 hurdat_atl main 478 416 O_____________ hurdat_atl AL041979 25.0000 -92.3000 TS 55 996 0 13 30
1979191N22264 1979 52 NA GM BOB 1979-07-10 21:00:00 TS 25.5550 -91.9348 main 403 331 P_____________ AL041979 25.5550 -91.9348 TS 60 992 0 14 28
1979191N22264 1979 52 NA GM BOB 1979-07-11 00:00:00 TS 26.2000 -91.6000 65 988 hurdat_atl main 331 248 O_____________ hurdat_atl AL041979 26.2000 -91.6000 HU 65 988 1 15 21
1979191N22264 1979 52 NA GM BOB 1979-07-11 03:00:00 TS 26.9924 -91.3347 main 237 146 P_____________ AL041979 26.9924 -91.3347 HU 65 989 1 17 16
1979191N22264 1979 52 NA GM BOB 1979-07-11 06:00:00 TS 27.8000 -91.1000 65 991 hurdat_atl main 146 78 O_____________ hurdat_atl AL041979 27.8000 -91.1000 HU 65 991 1 15 17
1979191N22264 1979 52 NA GM BOB 1979-07-11 09:00:00 TS 28.4275 -90.8419 main 78 0 P_____________ AL041979 28.4275 -90.8419 HU 65 988 1 14 19
1979191N22264 1979 52 NA GM BOB 1979-07-11 12:00:00 TS 29.1000 -90.6000 65 986 hurdat_atl main 0 0 O_____________ hurdat_atl AL041979 29.1000 -90.6000 HU 65 986 1 17 14
1979191N22264 1979 52 NA NA BOB 1979-07-11 15:00:00 TS 30.0350 -90.3851 main 0 0 P_____________ AL041979 30.0350 -90.3851 HU 52 989 0 19 10
1979191N22264 1979 52 NA NA BOB 1979-07-11 18:00:00 TS 31.0000 -90.2000 40 992 hurdat_atl main 0 0 O_____________ hurdat_atl AL041979 31.0000 -90.2000 TS 40 992 0 18 10
1979191N22264 1979 52 NA NA BOB 1979-07-11 21:00:00 TS 31.7799 -90.0346 main 0 0 P_____________ AL041979 31.7799 -90.0346 TS 35 995 0 15 10
1979191N22264 1979 52 NA NA BOB 1979-07-12 00:00:00 TS 32.5000 -89.9000 30 998 hurdat_atl main 0 0 O_____________ hurdat_atl AL041979 32.5000 -89.9000 TD 30 998 -1 15 7
1979191N22264 1979 52 NA NA BOB 1979-07-12 03:00:00 TS 33.2199 -89.8211 main 0 0 P_____________ AL041979 33.2199 -89.8211 TD 27 1000 -1 15 6
1979191N22264 1979 52 NA NA BOB 1979-07-12 06:00:00 TS 34.0000 -89.7000 25 1002 hurdat_atl main 0 0 O_____________ hurdat_atl AL041979 34.0000 -89.7000 TD 25 1002 -1 18 9
1979191N22264 1979 52 NA NA BOB 1979-07-12 09:00:00 TS 34.9646 -89.4820 main 0 0 P_____________ AL041979 34.9646 -89.4820 TD 25 1003 -1 20 14
1979191N22264 1979 52 NA NA BOB 1979-07-12 12:00:00 TS 35.9000 -89.1000 25 1004 hurdat_atl main 0 0 O_____________ hurdat_atl AL041979 35.9000 -89.1000 TD 25 1004 -1 18 26
1979191N22264 1979 52 NA NA BOB 1979-07-12 15:00:00 TS 36.5953 -88.5020 main 0 0 P_____________ AL041979 36.5953 -88.5020 TD 25 1005 -1 17 39
1979191N22264 1979 52 NA NA BOB 1979-07-12 18:00:00 TS 37.2000 -87.8000 25 1006 hurdat_atl main 0 0 O_____________ hurdat_atl AL041979 37.2000 -87.8000 TD 25 1006 -1 17 39
1979191N22264 1979 52 NA NA BOB 1979-07-12 21:00:00 TS 37.9247 -87.1435 main 0 0 P_____________ AL041979 37.9247 -87.1435 TD 25 1006 -1 17 38
1979191N22264 1979 52 NA NA BOB 1979-07-13 00:00:00 TS 38.5000 -86.5000 25 1006 hurdat_atl main 0 0 O_____________ hurdat_atl AL041979 38.5000 -86.5000 TD 25 1006 -1 13 50
1979191N22264 1979 52 NA NA BOB 1979-07-13 03:00:00 TS 38.7319 -85.8979 main 0 0 P_____________ AL041979 38.7319 -85.8979 TD 25 1006 -1 10 72
1979191N22264 1979 52 NA NA BOB 1979-07-13 06:00:00 TS 38.8000 -85.3000 25 1006 hurdat_atl main 0 0 O_____________ hurdat_atl AL041979 38.8000 -85.3000 TD 25 1006 -1 10 79
1979191N22264 1979 52 NA NA BOB 1979-07-13 09:00:00 TS 38.9223 -84.6576 main 0 0 P_____________ AL041979 38.9223 -84.6576 TD 25 1006 -1 10 79
1979191N22264 1979 52 NA NA BOB 1979-07-13 12:00:00 TS 39.0000 -84.0000 25 1007 hurdat_atl main 0 0 O_____________ hurdat_atl AL041979 39.0000 -84.0000 TD 25 1007 -1 10 85
1979191N22264 1979 52 NA NA BOB 1979-07-13 15:00:00 TS 39.0145 -83.3571 main 0 0 P_____________ AL041979 39.0145 -83.3571 TD 25 1007 -1 10 90
1979191N22264 1979 52 NA NA BOB 1979-07-13 18:00:00 TS 39.0000 -82.7000 25 1008 hurdat_atl main 0 0 O_____________ hurdat_atl AL041979 39.0000 -82.7000 TD 25 1008 -1 11 90
1979191N22264 1979 52 NA NA BOB 1979-07-13 21:00:00 TS 39.0225 -81.9931 main 0 0 P_____________ AL041979 39.0225 -81.9931 TD 22 1008 -1 11 90
1979191N22264 1979 52 NA NA BOB 1979-07-14 00:00:00 TS 39.0000 -81.3000 20 1009 hurdat_atl main 0 0 O_____________ hurdat_atl AL041979 39.0000 -81.3000 TD 20 1009 -1 10 98
1979191N22264 1979 52 NA NA BOB 1979-07-14 03:00:00 TS 38.8793 -80.6925 main 0 0 P_____________ AL041979 38.8793 -80.6925 TD 20 1009 -1 10 108
1979191N22264 1979 52 NA NA BOB 1979-07-14 06:00:00 TS 38.7000 -80.1000 20 1009 hurdat_atl main 0 0 O_____________ hurdat_atl AL041979 38.7000 -80.1000 TD 20 1009 -1 10 111
1979191N22264 1979 52 NA NA BOB 1979-07-14 09:00:00 TS 38.5075 -79.4425 main 0 0 P_____________ AL041979 38.5075 -79.4425 TD 20 1009 -1 11 111
1979191N22264 1979 52 NA NA BOB 1979-07-14 12:00:00 TS 38.3000 -78.8000 20 1010 hurdat_atl main 0 0 O_____________ hurdat_atl AL041979 38.3000 -78.8000 TD 20 1010 -1 10 113
1979191N22264 1979 52 NA NA BOB 1979-07-14 15:00:00 TS 38.0994 -78.2430 main 0 0 P_____________ AL041979 38.0994 -78.2430 TD 20 1010 -1 10 115
1979191N22264 1979 52 NA NA BOB 1979-07-14 18:00:00 TS 37.9000 -77.7000 20 1010 hurdat_atl main 0 0 O_____________ hurdat_atl AL041979 37.9000 -77.7000 TD 20 1010 -1 10 112
1979191N22264 1979 52 NA NA BOB 1979-07-14 21:00:00 TS 37.7231 -77.0324 main 0 0 P_____________ AL041979 37.7231 -77.0324 TD 20 1010 -1 10 113
1979191N22264 1979 52 NA NA BOB 1979-07-15 00:00:00 TS 37.5000 -76.5000 20 1011 hurdat_atl main 0 0 O_____________ hurdat_atl AL041979 37.5000 -76.5000 TD 20 1011 -1 8 134
1979191N22264 1979 52 NA NA BOB 1979-07-15 03:00:00 TS 37.1794 -76.3334 main 11 0 P_____________ AL041979 37.1794 -76.3334 TD 20 1011 -1 7 167
1979191N22264 1979 52 NA NA BOB 1979-07-15 06:00:00 TS 36.8000 -76.3000 20 1011 hurdat_atl main 0 0 O_____________ hurdat_atl AL041979 36.8000 -76.3000 TD 20 1011 -1 8 167
1979191N22264 1979 52 NA NA BOB 1979-07-15 09:00:00 TS 36.4225 -76.1118 main 0 0 P_____________ AL041979 36.4225 -76.1118 TD 20 1011 -1 8 163
1979191N22264 1979 52 NA NA BOB 1979-07-15 12:00:00 TS 36.0000 -76.0000 20 1012 hurdat_atl main 14 0 O_____________ hurdat_atl AL041979 36.0000 -76.0000 TD 20 1012 -1 9 0
1979191N22264 1979 52 NA NA BOB 1979-07-15 15:00:00 TS 35.5150 -76.1133 main 0 0 P_____________ AL041979 35.5150 -76.1133 TD 20 1012 -1 10 194
1979191N22264 1979 52 NA NA BOB 1979-07-15 18:00:00 TS 35.0000 -76.3000 20 1012 hurdat_atl main 11 0 O_____________ hurdat_atl AL041979 35.0000 -76.3000 TD 20 1012 -1 11 196
1979191N22264 1979 52 NA NA BOB 1979-07-15 21:00:00 TS 34.4624 -76.4756 main 22 22 P_____________ AL041979 34.4624 -76.4756 TD 20 1012 -1 10 189
1979191N22264 1979 52 NA NA BOB 1979-07-16 00:00:00 TS 34.0000 -76.5000 20 1013 hurdat_atl main 78 78 O_____________ hurdat_atl AL041979 34.0000 -76.5000 TD 20 1013 -1 8 164
1979191N22264 1979 52 NA NA BOB 1979-07-16 03:00:00 TS 33.7126 -76.2247 main 114 114 P_____________ AL041979 33.7126 -76.2247 TD 20 1013 -1 8 131
1979191N22264 1979 52 NA NA BOB 1979-07-16 06:00:00 TS 33.5000 -75.8000 20 1013 hurdat_atl main 148 148 O_____________ hurdat_atl AL041979 33.5000 -75.8000 TD 20 1013 -1 8 123
1979191N22264 1979 52 NA NA BOB 1979-07-16 09:00:00 TS 33.2626 -75.3872 main 186 186 P_____________ AL041979 33.2626 -75.3872 TD 20 1013 -1 8 127
1979191N22264 1979 52 NA NA BOB 1979-07-16 12:00:00 TS 33.0000 -75.0000 20 1014 hurdat_atl main 234 O_____________ hurdat_atl AL041979 33.0000 -75.0000 TD 20 1014 -1 8 129

IBTrACS Databaseについて

本データベースは、米国NOAAが公開する1842年以降の世界の熱帯低気圧のベストトラックデータアーカイブInternational Best Track Archive for Climate Stewardship (IBTrACS)を、ウェブで閲覧しやすい形式に変換したものです。

最終更新日:2021-10-21